createdAt,value
2019-04-23T00:03:47.485Z,8.68
2019-04-23T00:13:57.748Z,8.20
2019-04-23T00:18:57.449Z,6.90
2019-04-23T00:24:21.308Z,7.17
2019-04-23T00:29:26.080Z,6.60
2019-04-23T00:34:17.808Z,7.45
2019-04-23T00:39:25.001Z,7.12
2019-04-23T00:44:32.515Z,6.95
2019-04-23T00:49:34.504Z,7.67
2019-04-23T00:54:41.087Z,6.65
2019-04-23T00:59:46.251Z,6.78
2019-04-23T01:04:49.007Z,6.58
2019-04-23T01:15:07.483Z,6.47
2019-04-23T01:20:21.072Z,6.17
2019-04-23T01:25:13.783Z,6.20
2019-04-23T01:30:40.609Z,6.33
2019-04-23T01:36:01.492Z,5.95
2019-04-23T01:40:53.844Z,7.45
2019-04-23T01:45:58.943Z,7.25
2019-04-23T01:51:07.832Z,7.15
2019-04-23T01:56:06.100Z,5.90
2019-04-23T02:01:11.636Z,6.00
2019-04-23T02:11:20.212Z,5.30
2019-04-23T02:16:32.148Z,6.83
2019-04-23T02:21:45.203Z,6.62
2019-04-23T02:26:46.440Z,6.90
2019-04-23T02:37:28.600Z,6.78
2019-04-23T02:42:20.841Z,5.90
2019-04-23T02:47:17.338Z,5.92
2019-04-23T02:57:20.458Z,5.60
2019-04-23T03:07:39.368Z,6.05
2019-04-23T03:12:37.917Z,5.28
2019-04-23T03:18:29.008Z,4.97
2019-04-23T03:28:21.232Z,5.80
2019-04-23T03:38:37.989Z,6.12
2019-04-23T03:43:33.334Z,5.97
2019-04-23T03:48:41.606Z,5.28
2019-04-23T04:09:10.518Z,6.15
2019-04-23T04:14:12.140Z,5.85
2019-04-23T04:19:16.537Z,7.35
2019-04-23T04:24:22.535Z,5.60
2019-04-23T04:29:21.859Z,6.87
2019-04-23T04:34:43.739Z,5.83
2019-04-23T04:49:54.749Z,6.40
2019-04-23T04:54:29.159Z,8.13
2019-04-23T05:00:01.777Z,7.65
2019-04-23T05:05:20.683Z,5.62
2019-04-23T05:10:07.938Z,5.30
2019-04-23T05:15:04.643Z,7.92
2019-04-23T05:25:05.466Z,11.70
2019-04-23T05:30:15.637Z,13.28
2019-04-23T05:35:33.446Z,11.25
2019-04-23T05:45:38.246Z,12.95
2019-04-23T05:51:00.872Z,12.73
2019-04-23T05:55:49.322Z,15.20
2019-04-23T06:00:55.999Z,16.45
2019-04-23T06:06:08.201Z,18.27
2019-04-23T06:11:05.635Z,20.52
2019-04-23T06:16:16.571Z,19.32
2019-04-23T06:21:20.701Z,18.98
2019-04-23T06:31:33.871Z,12.45
2019-04-23T06:41:36.178Z,16.97
2019-04-23T06:46:44.641Z,12.80
2019-04-23T06:51:52.126Z,12.90
2019-04-23T06:57:02.210Z,14.15
2019-04-23T07:02:01.160Z,11.20
2019-04-23T07:07:24.137Z,13.58
2019-04-23T07:12:05.229Z,11.78
2019-04-23T07:17:09.176Z,9.78
2019-04-23T07:22:19.993Z,10.68
2019-04-23T07:27:22.739Z,10.75
2019-04-23T07:32:28.993Z,11.60
2019-04-23T07:37:43.198Z,8.55
2019-04-23T07:42:41.845Z,12.18
2019-04-23T07:48:10.809Z,14.60
2019-04-23T07:53:16.971Z,11.28
2019-04-23T07:58:22.186Z,11.28
2019-04-23T08:08:39.868Z,10.85
2019-04-23T08:18:45.304Z,12.35
2019-04-23T08:23:50.696Z,9.20
2019-04-23T08:28:59.588Z,17.98
2019-04-23T08:34:05.529Z,12.28
2019-04-23T08:38:57.033Z,12.43
2019-04-23T08:44:21.584Z,18.77
2019-04-23T08:49:29.587Z,14.10
2019-04-23T08:54:45.048Z,11.55
2019-04-23T08:59:38.974Z,10.93
2019-04-23T09:09:53.543Z,10.00
2019-04-23T09:14:54.397Z,10.82
2019-04-23T09:20:15.054Z,12.80
2019-04-23T09:25:02.721Z,9.35
2019-04-23T09:30:07.001Z,13.10
2019-04-23T09:40:31.494Z,10.05
2019-04-23T09:50:50.966Z,13.32
2019-04-23T09:56:00.878Z,11.00
2019-04-23T10:00:56.153Z,12.20
2019-04-23T10:05:49.076Z,9.00
2019-04-23T10:10:42.935Z,12.90
2019-04-23T10:15:48.531Z,10.30
2019-04-23T10:20:52.377Z,13.95
2019-04-23T10:25:56.379Z,11.60
2019-04-23T10:31:00.692Z,13.88
2019-04-23T10:36:09.384Z,14.03
2019-04-23T10:41:11.894Z,10.98
2019-04-23T10:46:53.157Z,9.90
2019-04-23T10:52:13.482Z,7.50
2019-04-23T10:57:04.035Z,9.73
2019-04-23T11:12:46.349Z,11.03
2019-04-23T11:22:50.978Z,10.80
2019-04-23T11:28:05.655Z,11.15
2019-04-23T11:43:20.354Z,10.15
2019-04-23T11:53:35.598Z,9.50
2019-04-23T11:58:35.773Z,9.05
2019-04-23T12:04:05.102Z,8.13
2019-04-23T12:09:07.383Z,9.10
2019-04-23T12:14:33.025Z,8.28
2019-04-23T12:25:03.445Z,8.68
2019-04-23T12:34:47.508Z,13.15
2019-04-23T12:39:53.946Z,10.98
2019-04-23T12:45:00.067Z,10.15
2019-04-23T13:00:05.215Z,10.32
2019-04-23T13:15:34.764Z,9.88
2019-04-23T13:20:28.041Z,9.90
2019-04-23T13:25:45.633Z,12.20
2019-04-23T13:36:05.020Z,10.53
2019-04-23T13:41:01.381Z,10.15
2019-04-23T13:46:09.517Z,10.13
2019-04-23T13:51:06.718Z,9.10
2019-04-23T13:56:11.210Z,10.98
2019-04-23T14:06:36.503Z,11.60
2019-04-23T14:16:51.597Z,11.48
2019-04-23T14:21:51.388Z,8.85
2019-04-23T14:26:41.889Z,9.10
2019-04-23T14:32:01.312Z,9.38
2019-04-23T14:36:57.767Z,10.70
2019-04-23T14:42:07.166Z,16.12
2019-04-23T14:47:16.781Z,21.62
2019-04-23T14:52:14.530Z,16.48
2019-04-23T15:02:27.162Z,17.67
2019-04-23T15:07:28.639Z,10.23
2019-04-23T15:12:33.471Z,17.80
2019-04-23T15:17:34.711Z,13.75
2019-04-23T15:22:50.561Z,13.30
2019-04-23T15:28:05.271Z,16.73
2019-04-23T15:33:03.918Z,17.73
2019-04-23T15:43:10.382Z,15.72
2019-04-23T15:48:11.620Z,13.85
2019-04-23T15:53:07.856Z,11.60
2019-04-23T16:02:55.924Z,16.55
2019-04-23T16:08:24.031Z,14.55
2019-04-23T16:13:37.097Z,12.30
2019-04-23T16:18:55.336Z,12.53
2019-04-23T16:24:00.933Z,16.30
2019-04-23T16:34:27.277Z,12.50
2019-04-23T16:39:22.138Z,20.60
2019-04-23T16:44:38.787Z,12.78
2019-04-23T16:49:46.110Z,19.90
2019-04-23T16:54:53.253Z,13.70
2019-04-23T17:00:03.046Z,21.60
2019-04-23T17:04:54.420Z,13.00
2019-04-23T17:20:19.222Z,14.18
2019-04-23T17:30:22.182Z,12.33
2019-04-23T17:40:50.393Z,17.05
2019-04-23T17:45:57.213Z,13.78
2019-04-23T18:01:22.571Z,13.60
2019-04-23T18:16:41.678Z,11.97
2019-04-23T18:22:05.001Z,13.53
2019-04-23T18:27:00.592Z,13.68
2019-04-23T18:32:14.713Z,11.33
2019-04-23T18:37:17.957Z,12.40
2019-04-23T18:42:29.646Z,11.80
2019-04-23T18:53:02.237Z,10.70
2019-04-23T18:57:50.402Z,14.23
2019-04-23T19:02:53.880Z,12.37
2019-04-23T19:08:21.313Z,13.00
2019-04-23T19:13:21.171Z,12.78
2019-04-23T19:18:19.200Z,12.18
2019-04-23T19:23:25.743Z,11.60
2019-04-23T19:28:41.099Z,13.40
2019-04-23T19:33:36.496Z,13.98
2019-04-23T19:38:35.212Z,13.60
2019-04-23T19:43:49.462Z,13.03
2019-04-23T19:54:05.017Z,14.75
2019-04-23T19:58:56.749Z,12.82
2019-04-23T20:03:57.626Z,14.40
2019-04-23T20:14:11.578Z,14.87
2019-04-23T20:19:23.909Z,16.52
2019-04-23T20:24:37.274Z,13.32
2019-04-23T20:34:52.980Z,15.18
2019-04-23T20:39:52.200Z,12.50
2019-04-23T20:50:03.422Z,12.37
2019-04-23T21:00:23.817Z,12.60
2019-04-23T21:05:16.262Z,13.10
2019-04-23T21:10:35.874Z,16.42
2019-04-23T21:20:37.040Z,14.50
2019-04-23T21:25:44.889Z,15.15
2019-04-23T21:31:04.903Z,12.25
2019-04-23T21:41:39.085Z,16.12
2019-04-23T21:51:45.458Z,12.88
2019-04-23T21:56:44.643Z,11.80
2019-04-23T22:02:09.222Z,13.60
2019-04-23T22:06:52.788Z,12.70
2019-04-23T22:12:03.437Z,11.97
2019-04-23T22:22:07.766Z,11.93
2019-04-23T22:27:16.527Z,10.05
2019-04-23T22:32:33.986Z,11.65
2019-04-23T22:37:56.799Z,10.58
2019-04-23T22:42:54.462Z,9.75
2019-04-23T22:47:39.457Z,10.80
2019-04-23T22:52:48.293Z,9.13
2019-04-23T23:02:58.015Z,9.30
2019-04-23T23:08:10.277Z,9.30
2019-04-23T23:18:14.979Z,12.65
2019-04-23T23:23:19.479Z,9.88
2019-04-23T23:43:41.377Z,10.35
2019-04-23T23:48:42.244Z,8.78
